sensor_id;sensor_type;location;lat;lon;timestamp;temperature;humidity
13686;DHT22;6915;48.296;8.874;2023-07-30T00:00:50;17.70;99.90
13686;DHT22;6915;48.296;8.874;2023-07-30T00:03:20;17.70;99.90
13686;DHT22;6915;48.296;8.874;2023-07-30T00:05:55;17.70;99.90
13686;DHT22;6915;48.296;8.874;2023-07-30T00:08:24;17.60;99.90
13686;DHT22;6915;48.296;8.874;2023-07-30T00:10:53;17.60;99.90
13686;DHT22;6915;48.296;8.874;2023-07-30T00:13:21;17.60;99.90
13686;DHT22;6915;48.296;8.874;2023-07-30T00:15:50;17.60;99.90
13686;DHT22;6915;48.296;8.874;2023-07-30T00:18:20;17.50;99.90
13686;DHT22;6915;48.296;8.874;2023-07-30T00:20:49;17.50;99.90
13686;DHT22;6915;48.296;8.874;2023-07-30T00:23:17;17.50;99.90
13686;DHT22;6915;48.296;8.874;2023-07-30T00:25:46;17.50;99.90
13686;DHT22;6915;48.296;8.874;2023-07-30T00:28:14;17.50;99.90
13686;DHT22;6915;48.296;8.874;2023-07-30T00:30:43;17.50;99.90
13686;DHT22;6915;48.296;8.874;2023-07-30T00:33:12;17.50;99.90
13686;DHT22;6915;48.296;8.874;2023-07-30T00:35:42;17.50;99.90
13686;DHT22;6915;48.296;8.874;2023-07-30T00:38:11;17.40;99.90
13686;DHT22;6915;48.296;8.874;2023-07-30T00:40:42;17.40;99.90
13686;DHT22;6915;48.296;8.874;2023-07-30T00:43:10;17.40;99.90
13686;DHT22;6915;48.296;8.874;2023-07-30T00:45:41;17.30;99.90
13686;DHT22;6915;48.296;8.874;2023-07-30T00:48:11;17.30;99.90
13686;DHT22;6915;48.296;8.874;2023-07-30T00:50:43;17.30;99.90
13686;DHT22;6915;48.296;8.874;2023-07-30T00:53:15;17.30;99.90
13686;DHT22;6915;48.296;8.874;2023-07-30T00:55:44;17.30;99.90
13686;DHT22;6915;48.296;8.874;2023-07-30T00:58:15;17.30;99.90
13686;DHT22;6915;48.296;8.874;2023-07-30T01:00:45;17.30;99.90
13686;DHT22;6915;48.296;8.874;2023-07-30T01:03:14;17.30;99.90
13686;DHT22;6915;48.296;8.874;2023-07-30T01:05:45;17.40;99.90
13686;DHT22;6915;48.296;8.874;2023-07-30T01:08:14;17.40;99.90
13686;DHT22;6915;48.296;8.874;2023-07-30T01:10:43;17.30;99.90
13686;DHT22;6915;48.296;8.874;2023-07-30T01:13:12;17.30;99.90
13686;DHT22;6915;48.296;8.874;2023-07-30T01:15:43;17.20;99.90
13686;DHT22;6915;48.296;8.874;2023-07-30T01:18:12;17.30;99.90
13686;DHT22;6915;48.296;8.874;2023-07-30T01:20:41;17.30;99.90
13686;DHT22;6915;48.296;8.874;2023-07-30T01:23:11;17.40;99.90
13686;DHT22;6915;48.296;8.874;2023-07-30T01:25:41;17.40;99.90
13686;DHT22;6915;48.296;8.874;2023-07-30T01:28:12;17.40;99.90
13686;DHT22;6915;48.296;8.874;2023-07-30T01:30:44;17.40;99.90
13686;DHT22;6915;48.296;8.874;2023-07-30T01:33:14;17.40;99.90
13686;DHT22;6915;48.296;8.874;2023-07-30T01:35:43;17.40;99.90
13686;DHT22;6915;48.296;8.874;2023-07-30T01:38:14;17.40;99.90
13686;DHT22;6915;48.296;8.874;2023-07-30T01:40:43;17.30;99.90
13686;DHT22;6915;48.296;8.874;2023-07-30T01:43:12;17.30;99.90
13686;DHT22;6915;48.296;8.874;2023-07-30T01:45:40;17.30;99.90
13686;DHT22;6915;48.296;8.874;2023-07-30T01:48:09;17.30;99.90
13686;DHT22;6915;48.296;8.874;2023-07-30T01:50:37;17.30;99.90
13686;DHT22;6915;48.296;8.874;2023-07-30T01:53:06;17.30;99.90
13686;DHT22;6915;48.296;8.874;2023-07-30T01:55:36;17.30;99.90
13686;DHT22;6915;48.296;8.874;2023-07-30T01:58:05;17.20;99.90
13686;DHT22;6915;48.296;8.874;2023-07-30T02:00:34;17.10;99.90
13686;DHT22;6915;48.296;8.874;2023-07-30T02:03:02;17.10;99.90
13686;DHT22;6915;48.296;8.874;2023-07-30T02:05:31;17.00;99.90
13686;DHT22;6915;48.296;8.874;2023-07-30T02:08:00;17.00;99.90
13686;DHT22;6915;48.296;8.874;2023-07-30T02:10:29;17.00;99.90
13686;DHT22;6915;48.296;8.874;2023-07-30T02:12:58;17.00;99.90
13686;DHT22;6915;48.296;8.874;2023-07-30T02:15:27;17.00;99.90
13686;DHT22;6915;48.296;8.874;2023-07-30T02:17:55;17.00;99.90
13686;DHT22;6915;48.296;8.874;2023-07-30T02:20:26;17.00;99.90
13686;DHT22;6915;48.296;8.874;2023-07-30T02:22:55;16.90;99.90
13686;DHT22;6915;48.296;8.874;2023-07-30T02:25:23;16.90;99.90
13686;DHT22;6915;48.296;8.874;2023-07-30T02:27:52;16.80;99.90
13686;DHT22;6915;48.296;8.874;2023-07-30T02:30:22;16.80;99.90
13686;DHT22;6915;48.296;8.874;2023-07-30T02:32:51;16.80;99.90
13686;DHT22;6915;48.296;8.874;2023-07-30T02:35:20;16.80;99.90
13686;DHT22;6915;48.296;8.874;2023-07-30T02:37:49;16.80;99.90
13686;DHT22;6915;48.296;8.874;2023-07-30T02:40:19;16.70;99.90
13686;DHT22;6915;48.296;8.874;2023-07-30T02:42:48;16.70;99.90
13686;DHT22;6915;48.296;8.874;2023-07-30T02:45:17;16.70;99.90
13686;DHT22;6915;48.296;8.874;2023-07-30T02:47:47;16.70;99.90
13686;DHT22;6915;48.296;8.874;2023-07-30T02:50:17;16.70;99.90
13686;DHT22;6915;48.296;8.874;2023-07-30T02:52:46;16.60;99.90
13686;DHT22;6915;48.296;8.874;2023-07-30T02:55:14;16.60;99.90
13686;DHT22;6915;48.296;8.874;2023-07-30T02:57:43;16.60;99.90
13686;DHT22;6915;48.296;8.874;2023-07-30T03:00:13;16.60;99.90
13686;DHT22;6915;48.296;8.874;2023-07-30T03:02:41;16.50;99.90
13686;DHT22;6915;48.296;8.874;2023-07-30T03:05:12;16.50;99.90
13686;DHT22;6915;48.296;8.874;2023-07-30T03:07:40;16.50;99.90
13686;DHT22;6915;48.296;8.874;2023-07-30T03:10:09;16.50;99.90
13686;DHT22;6915;48.296;8.874;2023-07-30T03:12:38;16.50;99.90
13686;DHT22;6915;48.296;8.874;2023-07-30T03:15:08;16.50;99.90
13686;DHT22;6915;48.296;8.874;2023-07-30T03:17:36;16.50;99.90
13686;DHT22;6915;48.296;8.874;2023-07-30T03:20:06;16.50;99.90
13686;DHT22;6915;48.296;8.874;2023-07-30T03:22:37;16.50;99.90
13686;DHT22;6915;48.296;8.874;2023-07-30T03:25:07;16.60;99.90
13686;DHT22;6915;48.296;8.874;2023-07-30T03:27:36;16.60;99.90
13686;DHT22;6915;48.296;8.874;2023-07-30T03:30:06;16.50;99.90
13686;DHT22;6915;48.296;8.874;2023-07-30T03:32:36;16.60;99.90
13686;DHT22;6915;48.296;8.874;2023-07-30T03:35:03;16.60;99.90
13686;DHT22;6915;48.296;8.874;2023-07-30T03:37:32;16.60;99.90
13686;DHT22;6915;48.296;8.874;2023-07-30T03:40:02;16.70;99.90
13686;DHT22;6915;48.296;8.874;2023-07-30T03:42:30;16.60;99.90
13686;DHT22;6915;48.296;8.874;2023-07-30T03:44:59;16.60;99.90
13686;DHT22;6915;48.296;8.874;2023-07-30T03:47:28;16.60;99.90
13686;DHT22;6915;48.296;8.874;2023-07-30T03:49:56;16.50;99.90
13686;DHT22;6915;48.296;8.874;2023-07-30T03:52:25;16.50;99.90
13686;DHT22;6915;48.296;8.874;2023-07-30T03:54:53;16.50;99.90
13686;DHT22;6915;48.296;8.874;2023-07-30T03:57:23;16.50;99.90
13686;DHT22;6915;48.296;8.874;2023-07-30T03:59:52;16.50;99.90
13686;DHT22;6915;48.296;8.874;2023-07-30T04:02:20;16.50;99.90
13686;DHT22;6915;48.296;8.874;2023-07-30T04:04:49;16.50;99.90
13686;DHT22;6915;48.296;8.874;2023-07-30T04:07:18;16.50;99.90
13686;DHT22;6915;48.296;8.874;2023-07-30T04:09:47;16.60;99.90
13686;DHT22;6915;48.296;8.874;2023-07-30T04:12:15;16.60;99.90
13686;DHT22;6915;48.296;8.874;2023-07-30T04:14:46;16.70;99.90
13686;DHT22;6915;48.296;8.874;2023-07-30T04:17:15;16.70;99.90
13686;DHT22;6915;48.296;8.874;2023-07-30T04:19:43;16.50;99.90
13686;DHT22;6915;48.296;8.874;2023-07-30T04:22:12;16.60;99.90
13686;DHT22;6915;48.296;8.874;2023-07-30T04:24:40;16.60;99.90
13686;DHT22;6915;48.296;8.874;2023-07-30T04:27:09;16.70;99.90
13686;DHT22;6915;48.296;8.874;2023-07-30T04:29:37;16.70;99.90
13686;DHT22;6915;48.296;8.874;2023-07-30T04:32:09;16.60;99.90
13686;DHT22;6915;48.296;8.874;2023-07-30T04:34:36;16.70;99.90
13686;DHT22;6915;48.296;8.874;2023-07-30T04:37:06;16.70;99.90
13686;DHT22;6915;48.296;8.874;2023-07-30T04:39:35;16.80;99.90
13686;DHT22;6915;48.296;8.874;2023-07-30T04:42:04;16.70;99.90
13686;DHT22;6915;48.296;8.874;2023-07-30T04:44:35;16.80;99.90
13686;DHT22;6915;48.296;8.874;2023-07-30T04:47:03;17.30;99.90
13686;DHT22;6915;48.296;8.874;2023-07-30T04:49:33;18.00;99.90
13686;DHT22;6915;48.296;8.874;2023-07-30T04:52:02;18.80;99.90
13686;DHT22;6915;48.296;8.874;2023-07-30T04:54:31;19.60;99.90
13686;DHT22;6915;48.296;8.874;2023-07-30T04:57:02;20.40;99.90
13686;DHT22;6915;48.296;8.874;2023-07-30T04:59:31;21.10;99.90
13686;DHT22;6915;48.296;8.874;2023-07-30T05:02:12;21.60;99.90
13686;DHT22;6915;48.296;8.874;2023-07-30T05:04:43;21.70;99.90
13686;DHT22;6915;48.296;8.874;2023-07-30T05:07:11;21.30;99.90
13686;DHT22;6915;48.296;8.874;2023-07-30T05:09:40;21.10;99.90
13686;DHT22;6915;48.296;8.874;2023-07-30T05:12:09;21.40;99.90
13686;DHT22;6915;48.296;8.874;2023-07-30T05:14:37;21.80;99.90
13686;DHT22;6915;48.296;8.874;2023-07-30T05:17:08;22.40;99.90
13686;DHT22;6915;48.296;8.874;2023-07-30T05:19:36;22.90;99.90
13686;DHT22;6915;48.296;8.874;2023-07-30T05:22:12;23.30;99.90
13686;DHT22;6915;48.296;8.874;2023-07-30T05:24:40;23.60;99.90
13686;DHT22;6915;48.296;8.874;2023-07-30T05:27:09;23.80;99.90
13686;DHT22;6915;48.296;8.874;2023-07-30T05:29:38;24.00;99.90
13686;DHT22;6915;48.296;8.874;2023-07-30T05:32:09;23.90;99.90
13686;DHT22;6915;48.296;8.874;2023-07-30T05:34:37;23.60;99.90
13686;DHT22;6915;48.296;8.874;2023-07-30T05:37:08;23.40;99.90
13686;DHT22;6915;48.296;8.874;2023-07-30T05:39:36;23.60;99.90
13686;DHT22;6915;48.296;8.874;2023-07-30T05:42:05;23.80;99.90
13686;DHT22;6915;48.296;8.874;2023-07-30T05:44:34;23.90;99.90
13686;DHT22;6915;48.296;8.874;2023-07-30T05:47:02;24.10;99.90
13686;DHT22;6915;48.296;8.874;2023-07-30T05:49:31;24.10;99.90
13686;DHT22;6915;48.296;8.874;2023-07-30T05:52:00;24.30;99.90
13686;DHT22;6915;48.296;8.874;2023-07-30T05:54:30;24.30;99.90
13686;DHT22;6915;48.296;8.874;2023-07-30T05:57:01;24.30;99.90
13686;DHT22;6915;48.296;8.874;2023-07-30T05:59:29;24.50;99.90
13686;DHT22;6915;48.296;8.874;2023-07-30T06:02:01;24.30;99.90
13686;DHT22;6915;48.296;8.874;2023-07-30T06:04:30;24.00;99.90
13686;DHT22;6915;48.296;8.874;2023-07-30T06:06:59;23.60;99.90
13686;DHT22;6915;48.296;8.874;2023-07-30T06:09:27;23.50;99.90
13686;DHT22;6915;48.296;8.874;2023-07-30T06:11:57;23.30;99.90
13686;DHT22;6915;48.296;8.874;2023-07-30T06:14:26;23.10;99.90
13686;DHT22;6915;48.296;8.874;2023-07-30T06:16:55;22.80;99.90
13686;DHT22;6915;48.296;8.874;2023-07-30T06:19:23;22.80;99.90
13686;DHT22;6915;48.296;8.874;2023-07-30T06:21:54;22.60;99.90
13686;DHT22;6915;48.296;8.874;2023-07-30T06:24:23;22.60;99.90
13686;DHT22;6915;48.296;8.874;2023-07-30T06:26:53;22.60;99.90
13686;DHT22;6915;48.296;8.874;2023-07-30T06:29:22;22.90;99.90
13686;DHT22;6915;48.296;8.874;2023-07-30T06:31:51;23.00;99.90
13686;DHT22;6915;48.296;8.874;2023-07-30T06:34:23;23.20;99.90
13686;DHT22;6915;48.296;8.874;2023-07-30T06:36:52;23.20;99.90
13686;DHT22;6915;48.296;8.874;2023-07-30T06:41:50;23.40;99.90
13686;DHT22;6915;48.296;8.874;2023-07-30T06:44:22;23.50;99.90
13686;DHT22;6915;48.296;8.874;2023-07-30T06:46:52;23.40;99.90
13686;DHT22;6915;48.296;8.874;2023-07-30T06:49:22;23.20;99.90
13686;DHT22;6915;48.296;8.874;2023-07-30T06:51:51;23.20;99.90
13686;DHT22;6915;48.296;8.874;2023-07-30T06:54:20;23.00;99.90
13686;DHT22;6915;48.296;8.874;2023-07-30T06:56:49;22.70;99.90
13686;DHT22;6915;48.296;8.874;2023-07-30T06:59:19;22.40;99.90
13686;DHT22;6915;48.296;8.874;2023-07-30T07:01:48;22.30;99.90
13686;DHT22;6915;48.296;8.874;2023-07-30T07:04:17;22.40;99.90
13686;DHT22;6915;48.296;8.874;2023-07-30T07:06:47;22.40;99.90
13686;DHT22;6915;48.296;8.874;2023-07-30T07:09:16;22.60;99.90
13686;DHT22;6915;48.296;8.874;2023-07-30T07:11:46;22.50;99.90
13686;DHT22;6915;48.296;8.874;2023-07-30T07:14:15;22.40;99.90
13686;DHT22;6915;48.296;8.874;2023-07-30T07:16:54;22.20;99.90
13686;DHT22;6915;48.296;8.874;2023-07-30T07:19:26;22.30;99.90
13686;DHT22;6915;48.296;8.874;2023-07-30T07:21:55;22.10;99.90
13686;DHT22;6915;48.296;8.874;2023-07-30T07:24:24;21.90;99.90
13686;DHT22;6915;48.296;8.874;2023-07-30T07:26:55;21.80;99.90
13686;DHT22;6915;48.296;8.874;2023-07-30T07:29:24;21.60;99.90
13686;DHT22;6915;48.296;8.874;2023-07-30T07:31:54;21.60;99.90
13686;DHT22;6915;48.296;8.874;2023-07-30T07:34:23;21.80;99.90
13686;DHT22;6915;48.296;8.874;2023-07-30T07:36:52;22.00;99.90
13686;DHT22;6915;48.296;8.874;2023-07-30T07:39:22;22.10;99.90
13686;DHT22;6915;48.296;8.874;2023-07-30T07:42:11;22.20;99.90
13686;DHT22;6915;48.296;8.874;2023-07-30T07:44:40;22.40;99.90
13686;DHT22;6915;48.296;8.874;2023-07-30T07:47:12;22.60;99.90
13686;DHT22;6915;48.296;8.874;2023-07-30T07:49:43;22.70;99.90
13686;DHT22;6915;48.296;8.874;2023-07-30T07:52:11;22.60;99.90
13686;DHT22;6915;48.296;8.874;2023-07-30T07:54:42;22.90;99.90
13686;DHT22;6915;48.296;8.874;2023-07-30T07:57:11;22.90;99.90
13686;DHT22;6915;48.296;8.874;2023-07-30T07:59:40;22.90;99.90
13686;DHT22;6915;48.296;8.874;2023-07-30T08:02:18;22.80;99.90
13686;DHT22;6915;48.296;8.874;2023-07-30T08:05:36;22.50;99.90
13686;DHT22;6915;48.296;8.874;2023-07-30T08:08:29;22.70;99.90
13686;DHT22;6915;48.296;8.874;2023-07-30T08:11:22;22.90;99.90
13686;DHT22;6915;48.296;8.874;2023-07-30T08:14:04;22.70;99.90
13686;DHT22;6915;48.296;8.874;2023-07-30T08:16:33;22.50;99.90
13686;DHT22;6915;48.296;8.874;2023-07-30T08:19:03;22.80;99.90
13686;DHT22;6915;48.296;8.874;2023-07-30T08:21:32;23.00;99.90
13686;DHT22;6915;48.296;8.874;2023-07-30T08:24:00;23.10;99.90
13686;DHT22;6915;48.296;8.874;2023-07-30T08:26:29;23.00;99.90
13686;DHT22;6915;48.296;8.874;2023-07-30T08:28:58;23.10;99.90
13686;DHT22;6915;48.296;8.874;2023-07-30T08:31:27;23.30;99.90
13686;DHT22;6915;48.296;8.874;2023-07-30T08:33:55;23.40;99.90
13686;DHT22;6915;48.296;8.874;2023-07-30T08:39:48;23.30;99.90
13686;DHT22;6915;48.296;8.874;2023-07-30T08:42:17;23.00;99.90
13686;DHT22;6915;48.296;8.874;2023-07-30T08:44:46;23.10;99.90
13686;DHT22;6915;48.296;8.874;2023-07-30T08:47:14;23.10;99.90
13686;DHT22;6915;48.296;8.874;2023-07-30T08:49:43;23.00;99.90
13686;DHT22;6915;48.296;8.874;2023-07-30T08:52:12;23.00;99.90
13686;DHT22;6915;48.296;8.874;2023-07-30T08:54:42;23.30;99.90
13686;DHT22;6915;48.296;8.874;2023-07-30T08:57:14;23.40;99.90
13686;DHT22;6915;48.296;8.874;2023-07-30T08:59:50;23.40;99.90
13686;DHT22;6915;48.296;8.874;2023-07-30T09:02:26;23.10;99.90
13686;DHT22;6915;48.296;8.874;2023-07-30T09:05:00;22.70;99.90
13686;DHT22;6915;48.296;8.874;2023-07-30T09:07:29;22.10;99.90
13686;DHT22;6915;48.296;8.874;2023-07-30T09:09:58;22.00;99.90
13686;DHT22;6915;48.296;8.874;2023-07-30T09:12:30;22.10;99.90
13686;DHT22;6915;48.296;8.874;2023-07-30T09:14:59;21.80;99.90
13686;DHT22;6915;48.296;8.874;2023-07-30T09:17:28;21.60;99.90
13686;DHT22;6915;48.296;8.874;2023-07-30T09:19:58;21.60;99.90
13686;DHT22;6915;48.296;8.874;2023-07-30T09:22:29;21.80;99.90
13686;DHT22;6915;48.296;8.874;2023-07-30T09:25:03;22.00;99.90
13686;DHT22;6915;48.296;8.874;2023-07-30T09:27:33;21.70;99.90
13686;DHT22;6915;48.296;8.874;2023-07-30T09:30:03;21.50;99.90
13686;DHT22;6915;48.296;8.874;2023-07-30T09:32:34;21.40;99.90
13686;DHT22;6915;48.296;8.874;2023-07-30T09:35:06;21.60;99.90
13686;DHT22;6915;48.296;8.874;2023-07-30T09:37:39;21.70;99.90
13686;DHT22;6915;48.296;8.874;2023-07-30T09:40:08;21.60;99.90
13686;DHT22;6915;48.296;8.874;2023-07-30T09:42:38;21.40;99.90
13686;DHT22;6915;48.296;8.874;2023-07-30T09:45:10;21.40;99.90
13686;DHT22;6915;48.296;8.874;2023-07-30T09:47:48;21.00;99.90
13686;DHT22;6915;48.296;8.874;2023-07-30T09:50:17;20.60;99.90
13686;DHT22;6915;48.296;8.874;2023-07-30T09:52:46;20.40;99.90
13686;DHT22;6915;48.296;8.874;2023-07-30T09:55:15;20.00;99.90
13686;DHT22;6915;48.296;8.874;2023-07-30T09:57:47;19.80;99.90
13686;DHT22;6915;48.296;8.874;2023-07-30T10:00:16;19.60;99.90
13686;DHT22;6915;48.296;8.874;2023-07-30T10:02:48;19.50;99.90
13686;DHT22;6915;48.296;8.874;2023-07-30T10:05:18;19.50;99.90
13686;DHT22;6915;48.296;8.874;2023-07-30T10:07:51;19.50;99.90
13686;DHT22;6915;48.296;8.874;2023-07-30T10:10:20;19.50;99.90
13686;DHT22;6915;48.296;8.874;2023-07-30T10:12:53;19.20;99.90
13686;DHT22;6915;48.296;8.874;2023-07-30T10:15:23;19.00;99.90
13686;DHT22;6915;48.296;8.874;2023-07-30T10:17:55;19.10;99.90
13686;DHT22;6915;48.296;8.874;2023-07-30T10:20:25;19.00;99.90
13686;DHT22;6915;48.296;8.874;2023-07-30T10:22:56;18.90;99.90
13686;DHT22;6915;48.296;8.874;2023-07-30T10:25:29;18.90;99.90
13686;DHT22;6915;48.296;8.874;2023-07-30T10:28:00;18.90;99.90
13686;DHT22;6915;48.296;8.874;2023-07-30T10:30:32;18.90;99.90
13686;DHT22;6915;48.296;8.874;2023-07-30T10:33:04;18.70;99.90
13686;DHT22;6915;48.296;8.874;2023-07-30T10:35:42;18.60;99.90
13686;DHT22;6915;48.296;8.874;2023-07-30T10:38:13;18.70;99.90
13686;DHT22;6915;48.296;8.874;2023-07-30T10:40:42;18.80;99.90
13686;DHT22;6915;48.296;8.874;2023-07-30T10:43:31;18.90;99.90
13686;DHT22;6915;48.296;8.874;2023-07-30T10:46:00;19.00;99.90
13686;DHT22;6915;48.296;8.874;2023-07-30T10:48:31;19.10;99.90
13686;DHT22;6915;48.296;8.874;2023-07-30T10:51:02;19.40;99.90
13686;DHT22;6915;48.296;8.874;2023-07-30T10:53:31;20.00;99.90
13686;DHT22;6915;48.296;8.874;2023-07-30T10:56:01;20.80;99.90
13686;DHT22;6915;48.296;8.874;2023-07-30T10:58:34;21.30;99.90
13686;DHT22;6915;48.296;8.874;2023-07-30T11:01:03;21.50;99.90
13686;DHT22;6915;48.296;8.874;2023-07-30T11:03:33;21.60;99.90
13686;DHT22;6915;48.296;8.874;2023-07-30T11:06:02;21.60;99.90
13686;DHT22;6915;48.296;8.874;2023-07-30T11:08:35;21.70;99.90
13686;DHT22;6915;48.296;8.874;2023-07-30T11:11:04;21.40;99.90
13686;DHT22;6915;48.296;8.874;2023-07-30T11:13:38;21.20;99.90
13686;DHT22;6915;48.296;8.874;2023-07-30T11:16:09;21.00;99.90
13686;DHT22;6915;48.296;8.874;2023-07-30T11:18:38;21.20;99.90
13686;DHT22;6915;48.296;8.874;2023-07-30T11:21:08;21.70;99.90
13686;DHT22;6915;48.296;8.874;2023-07-30T11:23:38;22.10;99.90
13686;DHT22;6915;48.296;8.874;2023-07-30T11:26:09;22.20;99.90
13686;DHT22;6915;48.296;8.874;2023-07-30T11:28:42;22.30;99.90
13686;DHT22;6915;48.296;8.874;2023-07-30T11:31:13;22.30;99.90
13686;DHT22;6915;48.296;8.874;2023-07-30T11:33:43;22.10;99.90
13686;DHT22;6915;48.296;8.874;2023-07-30T11:36:14;22.00;99.90
13686;DHT22;6915;48.296;8.874;2023-07-30T11:38:43;22.00;99.90
13686;DHT22;6915;48.296;8.874;2023-07-30T11:41:13;22.40;99.90
13686;DHT22;6915;48.296;8.874;2023-07-30T11:43:45;23.00;99.90
13686;DHT22;6915;48.296;8.874;2023-07-30T11:46:15;23.60;99.90
13686;DHT22;6915;48.296;8.874;2023-07-30T11:48:46;23.50;99.90
13686;DHT22;6915;48.296;8.874;2023-07-30T11:51:20;22.80;99.90
13686;DHT22;6915;48.296;8.874;2023-07-30T11:53:50;22.80;99.90
13686;DHT22;6915;48.296;8.874;2023-07-30T11:56:19;23.10;99.90
13686;DHT22;6915;48.296;8.874;2023-07-30T11:58:53;23.20;99.90
13686;DHT22;6915;48.296;8.874;2023-07-30T12:01:22;23.50;99.90
13686;DHT22;6915;48.296;8.874;2023-07-30T12:03:53;23.70;99.90
13686;DHT22;6915;48.296;8.874;2023-07-30T12:06:21;23.90;99.90
13686;DHT22;6915;48.296;8.874;2023-07-30T12:08:50;24.20;99.90
13686;DHT22;6915;48.296;8.874;2023-07-30T12:11:20;24.40;99.90
13686;DHT22;6915;48.296;8.874;2023-07-30T12:13:50;24.70;99.90
13686;DHT22;6915;48.296;8.874;2023-07-30T12:16:18;24.70;99.90
13686;DHT22;6915;48.296;8.874;2023-07-30T12:18:49;24.40;99.90
13686;DHT22;6915;48.296;8.874;2023-07-30T12:21:17;24.20;99.90
13686;DHT22;6915;48.296;8.874;2023-07-30T12:23:46;24.60;99.90
13686;DHT22;6915;48.296;8.874;2023-07-30T12:26:15;24.80;99.90
13686;DHT22;6915;48.296;8.874;2023-07-30T12:28:43;24.40;99.90
13686;DHT22;6915;48.296;8.874;2023-07-30T12:31:13;24.10;99.90
13686;DHT22;6915;48.296;8.874;2023-07-30T12:33:42;24.00;99.90
13686;DHT22;6915;48.296;8.874;2023-07-30T12:36:11;24.10;99.90
13686;DHT22;6915;48.296;8.874;2023-07-30T12:38:41;24.00;99.90
13686;DHT22;6915;48.296;8.874;2023-07-30T12:41:09;24.20;99.90
13686;DHT22;6915;48.296;8.874;2023-07-30T12:43:40;24.30;99.90
13686;DHT22;6915;48.296;8.874;2023-07-30T12:46:08;24.50;99.90
13686;DHT22;6915;48.296;8.874;2023-07-30T12:48:38;24.90;99.90
13686;DHT22;6915;48.296;8.874;2023-07-30T12:51:07;25.00;99.90
13686;DHT22;6915;48.296;8.874;2023-07-30T12:53:36;24.10;99.90
13686;DHT22;6915;48.296;8.874;2023-07-30T12:56:04;23.30;99.90
13686;DHT22;6915;48.296;8.874;2023-07-30T12:58:33;22.80;99.90
13686;DHT22;6915;48.296;8.874;2023-07-30T13:01:02;22.70;99.90
13686;DHT22;6915;48.296;8.874;2023-07-30T13:03:31;22.50;99.90
13686;DHT22;6915;48.296;8.874;2023-07-30T13:06:01;23.00;99.90
13686;DHT22;6915;48.296;8.874;2023-07-30T13:08:31;23.50;99.90
13686;DHT22;6915;48.296;8.874;2023-07-30T13:10:59;24.10;99.90
13686;DHT22;6915;48.296;8.874;2023-07-30T13:13:30;24.20;99.90
13686;DHT22;6915;48.296;8.874;2023-07-30T13:16:00;23.50;99.90
13686;DHT22;6915;48.296;8.874;2023-07-30T13:18:31;23.10;99.90
13686;DHT22;6915;48.296;8.874;2023-07-30T13:21:01;23.30;99.90
13686;DHT22;6915;48.296;8.874;2023-07-30T13:23:30;23.40;99.90
13686;DHT22;6915;48.296;8.874;2023-07-30T13:25:59;23.70;99.90
13686;DHT22;6915;48.296;8.874;2023-07-30T13:28:28;23.90;99.90
13686;DHT22;6915;48.296;8.874;2023-07-30T13:30:57;23.50;99.90
13686;DHT22;6915;48.296;8.874;2023-07-30T13:33:25;23.40;99.90
13686;DHT22;6915;48.296;8.874;2023-07-30T13:35:54;23.50;99.90
13686;DHT22;6915;48.296;8.874;2023-07-30T13:38:24;23.90;99.90
13686;DHT22;6915;48.296;8.874;2023-07-30T13:40:54;24.10;99.90
13686;DHT22;6915;48.296;8.874;2023-07-30T13:43:23;24.20;99.90
13686;DHT22;6915;48.296;8.874;2023-07-30T13:45:51;24.30;99.90
13686;DHT22;6915;48.296;8.874;2023-07-30T13:48:20;24.60;99.90
13686;DHT22;6915;48.296;8.874;2023-07-30T13:50:49;24.90;99.90
13686;DHT22;6915;48.296;8.874;2023-07-30T13:53:18;25.20;99.90
13686;DHT22;6915;48.296;8.874;2023-07-30T13:55:51;25.20;99.90
13686;DHT22;6915;48.296;8.874;2023-07-30T13:58:19;25.20;99.90
13686;DHT22;6915;48.296;8.874;2023-07-30T14:00:48;25.10;99.90
13686;DHT22;6915;48.296;8.874;2023-07-30T14:03:18;24.70;99.90
13686;DHT22;6915;48.296;8.874;2023-07-30T14:05:49;24.40;99.90
13686;DHT22;6915;48.296;8.874;2023-07-30T14:08:17;24.00;99.90
13686;DHT22;6915;48.296;8.874;2023-07-30T14:10:46;23.50;99.90
13686;DHT22;6915;48.296;8.874;2023-07-30T14:13:16;23.10;99.90
13686;DHT22;6915;48.296;8.874;2023-07-30T14:15:45;23.10;99.90
13686;DHT22;6915;48.296;8.874;2023-07-30T14:18:14;23.40;99.90
13686;DHT22;6915;48.296;8.874;2023-07-30T14:20:42;24.00;99.90
13686;DHT22;6915;48.296;8.874;2023-07-30T14:23:11;24.10;99.90
13686;DHT22;6915;48.296;8.874;2023-07-30T14:25:40;23.90;99.90
13686;DHT22;6915;48.296;8.874;2023-07-30T14:28:08;23.50;99.90
13686;DHT22;6915;48.296;8.874;2023-07-30T14:30:38;23.80;99.90
13686;DHT22;6915;48.296;8.874;2023-07-30T14:33:11;24.00;99.90
13686;DHT22;6915;48.296;8.874;2023-07-30T14:35:41;24.00;99.90
13686;DHT22;6915;48.296;8.874;2023-07-30T14:38:10;24.00;99.90
13686;DHT22;6915;48.296;8.874;2023-07-30T14:40:39;24.10;99.90
13686;DHT22;6915;48.296;8.874;2023-07-30T14:43:10;24.00;99.90
13686;DHT22;6915;48.296;8.874;2023-07-30T14:45:40;23.70;99.90
13686;DHT22;6915;48.296;8.874;2023-07-30T14:48:09;23.50;99.90
13686;DHT22;6915;48.296;8.874;2023-07-30T14:50:37;23.20;99.90
13686;DHT22;6915;48.296;8.874;2023-07-30T14:53:06;23.20;99.90
13686;DHT22;6915;48.296;8.874;2023-07-30T14:55:36;23.30;99.90
13686;DHT22;6915;48.296;8.874;2023-07-30T14:58:05;23.60;99.90
13686;DHT22;6915;48.296;8.874;2023-07-30T15:00:36;23.80;99.90
13686;DHT22;6915;48.296;8.874;2023-07-30T15:03:07;23.60;99.90
13686;DHT22;6915;48.296;8.874;2023-07-30T15:05:36;23.50;99.90
13686;DHT22;6915;48.296;8.874;2023-07-30T15:08:06;23.60;99.90
13686;DHT22;6915;48.296;8.874;2023-07-30T15:10:36;23.80;99.90
13686;DHT22;6915;48.296;8.874;2023-07-30T15:13:05;23.80;99.90
13686;DHT22;6915;48.296;8.874;2023-07-30T15:15:33;23.70;99.90
13686;DHT22;6915;48.296;8.874;2023-07-30T15:18:02;23.60;99.90
13686;DHT22;6915;48.296;8.874;2023-07-30T15:20:36;23.60;99.90
13686;DHT22;6915;48.296;8.874;2023-07-30T15:23:06;23.10;99.90
13686;DHT22;6915;48.296;8.874;2023-07-30T15:25:41;23.20;99.90
13686;DHT22;6915;48.296;8.874;2023-07-30T15:28:16;23.30;99.90
13686;DHT22;6915;48.296;8.874;2023-07-30T15:30:49;23.30;99.90
13686;DHT22;6915;48.296;8.874;2023-07-30T15:33:19;23.30;99.90
13686;DHT22;6915;48.296;8.874;2023-07-30T15:35:53;23.10;99.90
13686;DHT22;6915;48.296;8.874;2023-07-30T15:38:22;22.90;99.90
13686;DHT22;6915;48.296;8.874;2023-07-30T15:40:51;23.00;99.90
13686;DHT22;6915;48.296;8.874;2023-07-30T15:43:20;23.00;99.90
13686;DHT22;6915;48.296;8.874;2023-07-30T15:45:50;23.00;99.90
13686;DHT22;6915;48.296;8.874;2023-07-30T15:48:20;22.70;99.90
13686;DHT22;6915;48.296;8.874;2023-07-30T15:50:51;22.50;99.90
13686;DHT22;6915;48.296;8.874;2023-07-30T15:53:20;22.30;99.90
13686;DHT22;6915;48.296;8.874;2023-07-30T15:55:54;22.50;99.90
13686;DHT22;6915;48.296;8.874;2023-07-30T15:58:23;22.40;99.90
13686;DHT22;6915;48.296;8.874;2023-07-30T16:00:52;22.20;99.90
13686;DHT22;6915;48.296;8.874;2023-07-30T16:03:21;22.10;99.90
13686;DHT22;6915;48.296;8.874;2023-07-30T16:05:51;22.20;99.90
13686;DHT22;6915;48.296;8.874;2023-07-30T16:08:22;22.10;99.90